createdAt,value
2018-04-15T00:00:56.264Z,68.20
2018-04-15T00:03:23.827Z,68.30
2018-04-15T00:05:51.381Z,68.30
2018-04-15T00:08:18.944Z,68.30
2018-04-15T00:10:46.508Z,68.30
2018-04-15T00:13:14.074Z,68.30
2018-04-15T00:15:41.635Z,68.20
2018-04-15T00:18:09.200Z,68.30
2018-04-15T00:20:36.765Z,68.20
2018-04-15T00:23:04.325Z,68.20
2018-04-15T00:25:31.900Z,68.20
2018-04-15T00:27:59.465Z,68.30
2018-04-15T00:30:27.094Z,68.30
2018-04-15T00:32:54.657Z,68.20
2018-04-15T00:35:22.220Z,68.20
2018-04-15T00:37:49.800Z,68.20
2018-04-15T00:57:36.262Z,68.30
2018-04-15T01:00:03.826Z,68.30
2018-04-15T01:02:31.380Z,68.30
2018-04-15T01:04:58.938Z,68.20
2018-04-15T01:07:26.500Z,68.30
2018-04-15T01:09:54.078Z,68.20
2018-04-15T01:12:21.627Z,68.30
2018-04-15T01:14:49.181Z,68.20
2018-04-15T01:17:16.751Z,68.30
2018-04-15T01:19:44.308Z,68.20
2018-04-15T01:22:11.862Z,68.30
2018-04-15T01:24:39.422Z,68.20
2018-04-15T01:27:06.976Z,68.30
2018-04-15T01:29:34.529Z,68.30
2018-04-15T01:32:02.088Z,68.20
2018-04-15T01:34:29.660Z,68.20
2018-04-15T01:36:57.210Z,68.20
2018-04-15T01:39:24.758Z,68.30
2018-04-15T01:41:52.445Z,68.30
2018-04-15T01:44:20.033Z,68.30
2018-04-15T01:46:47.588Z,68.30
2018-04-15T01:49:15.145Z,68.20
2018-04-15T01:51:42.714Z,68.30
2018-04-15T01:54:10.265Z,68.30
2018-04-15T01:56:37.864Z,68.20
2018-04-15T01:59:05.417Z,68.20
2018-04-15T02:01:33.044Z,68.30
2018-04-15T02:04:00.604Z,68.30
2018-04-15T02:06:28.194Z,68.30
2018-04-15T02:08:55.874Z,68.30
2018-04-15T02:11:23.426Z,68.20
2018-04-15T02:13:50.984Z,68.30
2018-04-15T02:16:18.541Z,68.30
2018-04-15T02:18:46.107Z,68.30
2018-04-15T02:47:09.974Z,68.20
2018-04-15T02:49:37.554Z,68.20
2018-04-15T02:52:05.152Z,68.20
2018-04-15T02:54:32.745Z,69.00
2018-04-15T02:57:00.302Z,68.20
2018-04-15T02:59:27.869Z,68.20
2018-04-15T03:01:55.444Z,68.20
2018-04-15T03:04:23.015Z,68.90
2018-04-15T03:06:50.581Z,68.20
2018-04-15T03:09:18.142Z,68.20
2018-04-15T03:11:45.700Z,68.20
2018-04-15T03:14:13.260Z,68.10
2018-04-15T03:16:40.816Z,68.10
2018-04-15T03:19:08.373Z,68.20
2018-04-15T03:21:36.010Z,68.20
2018-04-15T03:24:03.566Z,68.20
2018-04-15T03:26:31.120Z,68.20
2018-04-15T03:28:58.733Z,68.20
2018-04-15T03:48:41.680Z,68.10
2018-04-15T03:51:09.238Z,68.10
2018-04-15T03:53:36.794Z,68.10
2018-04-15T03:56:04.348Z,68.10
2018-04-15T03:58:31.905Z,68.10
2018-04-15T04:00:59.464Z,68.10
2018-04-15T04:03:27.033Z,68.10
2018-04-15T04:05:54.591Z,68.10
2018-04-15T04:08:22.169Z,68.10
2018-04-15T04:10:49.727Z,68.10
2018-04-15T04:13:17.285Z,68.20
2018-04-15T04:15:44.844Z,68.10
2018-04-15T04:18:24.231Z,68.10
2018-04-15T04:21:03.559Z,68.10
2018-04-15T04:23:42.774Z,68.10
2018-04-15T04:26:10.329Z,68.20
2018-04-15T04:28:37.880Z,68.10
2018-04-15T04:48:24.938Z,68.20
2018-04-15T04:50:52.501Z,68.20
2018-04-15T04:53:20.055Z,68.10
2018-04-15T04:55:47.642Z,68.20
2018-04-15T04:58:15.229Z,68.20
2018-04-15T05:00:42.795Z,68.10
2018-04-15T05:03:10.356Z,68.10
2018-04-15T05:22:57.172Z,68.00
2018-04-15T05:25:24.729Z,68.00
2018-04-15T05:27:52.282Z,68.00
2018-04-15T05:30:19.848Z,68.00
2018-04-15T05:32:47.401Z,68.00
2018-04-15T05:35:14.956Z,68.00
2018-04-15T05:37:42.514Z,68.00
2018-04-15T05:40:10.074Z,68.00
2018-04-15T05:42:37.643Z,67.90
2018-04-15T05:45:05.345Z,67.90
2018-04-15T06:04:50.463Z,67.90
2018-04-15T06:30:22.127Z,67.70
2018-04-15T06:50:07.402Z,67.20
2018-04-15T06:52:34.949Z,67.00
2018-04-15T07:03:41.772Z,66.90
2018-04-15T07:23:28.322Z,66.70
2018-04-15T07:32:01.819Z,66.70
2018-04-15T07:34:29.389Z,66.70
2018-04-15T07:36:56.962Z,66.70
2018-04-15T07:39:24.546Z,66.70
2018-04-15T07:41:52.109Z,66.70
2018-04-15T07:44:19.682Z,66.70
2018-04-15T07:46:47.255Z,66.70
2018-04-15T08:06:33.732Z,66.90
2018-04-15T08:09:01.318Z,66.90
2018-04-15T08:11:28.946Z,66.90
2018-04-15T08:31:13.279Z,66.50
2018-04-15T08:33:40.847Z,66.40
2018-04-15T08:36:08.477Z,67.30
2018-04-15T08:58:46.148Z,66.50
2018-04-15T09:18:32.520Z,66.60
2018-04-15T09:38:16.665Z,66.70
2018-04-15T09:58:01.497Z,66.70
2018-04-15T10:00:29.058Z,66.80
2018-04-15T10:20:12.328Z,66.80
2018-04-15T10:22:39.996Z,66.70
2018-04-15T10:42:25.014Z,66.70
2018-04-15T11:02:10.773Z,66.60
2018-04-15T11:21:56.517Z,66.50
2018-04-15T11:24:24.095Z,66.60
2018-04-15T11:44:08.733Z,66.40
2018-04-15T11:46:36.306Z,66.40
2018-04-15T11:49:03.880Z,66.40
2018-04-15T11:51:31.478Z,66.50
2018-04-15T11:53:59.052Z,66.50
2018-04-15T12:13:43.813Z,66.40
2018-04-15T12:33:26.052Z,66.20
2018-04-15T12:53:31.203Z,66.20
2018-04-15T12:55:58.774Z,66.20
2018-04-15T13:15:43.775Z,66.30
2018-04-15T13:18:12.228Z,66.30
2018-04-15T13:37:56.222Z,66.30
2018-04-15T13:40:23.782Z,66.30
2018-04-15T13:42:51.341Z,66.30
2018-04-15T13:45:18.898Z,66.30
2018-04-15T13:47:46.465Z,66.30
2018-04-15T13:50:14.033Z,66.30
2018-04-15T13:52:41.606Z,66.30
2018-04-15T13:55:09.222Z,66.30
2018-04-15T13:57:36.819Z,66.40
2018-04-15T14:00:04.369Z,66.30
2018-04-15T14:02:31.932Z,67.20
2018-04-15T14:22:16.837Z,66.40
2018-04-15T14:24:44.396Z,66.40
2018-04-15T14:27:11.974Z,66.50
2018-04-15T14:49:49.805Z,66.70
2018-04-15T15:04:21.314Z,66.10
2018-04-15T15:24:07.287Z,66.70
2018-04-15T15:26:34.931Z,66.70
2018-04-15T15:29:02.539Z,66.80
2018-04-15T15:31:30.135Z,66.80
2018-04-15T15:33:57.740Z,66.80
2018-04-15T16:08:06.998Z,67.10
2018-04-15T16:10:34.665Z,67.20
2018-04-15T16:13:02.293Z,67.30
2018-04-15T16:47:13.366Z,67.40
2018-04-15T17:06:56.792Z,67.60
2018-04-15T17:26:43.041Z,67.60
2018-04-15T17:29:10.619Z,67.60
2018-04-15T17:37:24.448Z,67.70
2018-04-15T18:17:19.555Z,67.80
2018-04-15T18:37:03.228Z,68.00
2018-04-15T18:56:46.356Z,68.00
2018-04-15T19:16:31.043Z,68.20
2018-04-15T19:18:58.639Z,68.20
2018-04-15T19:21:30.171Z,68.20
2018-04-15T19:23:58.168Z,68.20
2018-04-15T19:26:25.720Z,68.20
2018-04-15T19:28:53.347Z,68.20
2018-04-15T19:31:20.906Z,68.20
2018-04-15T19:51:06.124Z,68.20
2018-04-15T19:53:33.933Z,68.20
2018-04-15T19:56:01.524Z,68.20
2018-04-15T19:58:29.868Z,68.30
2018-04-15T20:00:57.473Z,68.20
2018-04-15T20:03:25.843Z,68.20
2018-04-15T20:05:54.242Z,68.30
2018-04-15T20:08:21.937Z,68.20
2018-04-15T20:10:49.600Z,68.20
2018-04-15T20:13:17.211Z,68.20
2018-04-15T20:15:45.554Z,68.20
2018-04-15T20:18:13.128Z,68.20
2018-04-15T20:20:40.737Z,68.30
2018-04-15T20:23:09.560Z,68.30
2018-04-15T20:25:37.154Z,68.20
2018-04-15T20:28:04.722Z,68.20
2018-04-15T20:30:32.298Z,68.30
2018-04-15T20:33:00.641Z,68.30
2018-04-15T20:35:28.215Z,68.20
2018-04-15T20:37:55.796Z,68.20
2018-04-15T20:40:24.193Z,68.10
2018-04-15T20:42:51.831Z,68.10
2018-04-15T20:45:20.179Z,69.00
2018-04-15T20:47:47.790Z,68.30
2018-04-15T20:50:16.156Z,68.20
2018-04-15T20:52:44.499Z,68.30
2018-04-15T20:55:12.127Z,68.20
2018-04-15T20:57:39.755Z,68.30
2018-04-15T21:00:08.063Z,68.30
2018-04-15T21:02:35.690Z,68.20
2018-04-15T21:05:03.265Z,68.20
2018-04-15T21:07:31.608Z,68.30
2018-04-15T21:09:59.184Z,68.20
2018-04-15T21:12:26.764Z,68.20
2018-04-15T21:14:55.107Z,68.20
2018-04-15T21:17:22.683Z,68.20
2018-04-15T21:19:50.316Z,68.20
2018-04-15T21:22:18.611Z,68.30
2018-04-15T21:24:46.208Z,68.20
2018-04-15T21:27:14.584Z,68.20
2018-04-15T21:29:42.921Z,68.30
2018-04-15T21:32:10.500Z,68.20
2018-04-15T21:34:39.865Z,68.20
2018-04-15T21:37:08.497Z,68.30
2018-04-15T21:39:36.075Z,68.20
2018-04-15T21:42:04.415Z,68.30
2018-04-15T21:44:31.993Z,68.30
2018-04-15T21:46:59.674Z,68.30
2018-04-15T21:49:28.067Z,67.60
2018-04-15T21:51:56.436Z,68.30
2018-04-15T21:54:24.099Z,68.20
2018-04-15T21:56:52.439Z,68.30
2018-04-15T21:59:20.009Z,68.30
2018-04-15T22:01:47.595Z,68.30
2018-04-15T22:04:15.165Z,68.20
2018-04-15T22:06:43.539Z,68.30
2018-04-15T22:09:11.202Z,68.20
2018-04-15T22:11:52.799Z,68.30
2018-04-15T22:14:21.179Z,68.30
2018-04-15T22:16:49.548Z,68.20
2018-04-15T22:19:17.122Z,68.20
2018-04-15T22:21:45.460Z,68.20
2018-04-15T22:24:13.031Z,68.20
2018-04-15T22:26:40.620Z,68.30
2018-04-15T22:29:10.073Z,68.20
2018-04-15T22:31:38.110Z,68.20
2018-04-15T22:34:06.456Z,68.20
2018-04-15T22:36:34.141Z,69.00
2018-04-15T22:39:02.515Z,68.20
2018-04-15T22:41:30.892Z,69.00
2018-04-15T22:43:58.468Z,68.20
2018-04-15T22:46:26.823Z,68.20
2018-04-15T22:48:56.326Z,68.20
2018-04-15T22:51:24.009Z,68.20
2018-04-15T22:53:52.386Z,68.20
2018-04-15T22:56:20.727Z,68.20
2018-04-15T22:58:48.331Z,68.20
2018-04-15T23:01:16.708Z,68.20
2018-04-15T23:03:45.088Z,68.20
2018-04-15T23:06:12.651Z,68.20
2018-04-15T23:08:41.027Z,68.20
2018-04-15T23:11:10.738Z,68.20
2018-04-15T23:13:40.350Z,68.20
2018-04-15T23:16:09.935Z,68.20
2018-04-15T23:18:38.150Z,68.20
2018-04-15T23:21:06.507Z,68.20
2018-04-15T23:23:34.171Z,68.20
2018-04-15T23:26:01.743Z,68.30
2018-04-15T23:28:30.116Z,68.20
2018-04-15T23:30:58.452Z,68.30
2018-04-15T23:33:26.060Z,68.20
2018-04-15T23:35:54.438Z,68.20
2018-04-15T23:38:22.779Z,68.20
2018-04-15T23:40:50.376Z,68.20
2018-04-15T23:43:18.764Z,69.00
2018-04-15T23:45:47.141Z,68.30
2018-04-15T23:48:15.483Z,68.20
2018-04-15T23:50:43.056Z,68.10
2018-04-15T23:53:10.636Z,68.20
2018-04-15T23:55:38.815Z,68.20
2018-04-15T23:58:07.156Z,68.20
